sensor_id;sensor_type;location;lat;lon;timestamp;P1;durP1;ratioP1;P2;durP2;ratioP2
25083;SDS011;13075;55.682;37.564;2023-02-01T00:01:54;25.73;;;12.45;;
25083;SDS011;13075;55.682;37.564;2023-02-01T00:04:21;24.00;;;12.07;;
25083;SDS011;13075;55.682;37.564;2023-02-01T00:06:46;22.08;;;11.43;;
25083;SDS011;13075;55.682;37.564;2023-02-01T00:09:12;25.45;;;12.20;;
25083;SDS011;13075;55.682;37.564;2023-02-01T00:11:38;23.80;;;12.00;;
25083;SDS011;13075;55.682;37.564;2023-02-01T00:14:04;24.75;;;12.25;;
25083;SDS011;13075;55.682;37.564;2023-02-01T00:16:30;24.65;;;12.98;;
25083;SDS011;13075;55.682;37.564;2023-02-01T00:19:02;28.48;;;14.40;;
25083;SDS011;13075;55.682;37.564;2023-02-01T00:21:32;27.17;;;13.32;;
25083;SDS011;13075;55.682;37.564;2023-02-01T00:23:57;24.65;;;11.60;;
25083;SDS011;13075;55.682;37.564;2023-02-01T00:26:34;22.92;;;12.00;;
25083;SDS011;13075;55.682;37.564;2023-02-01T00:29:03;19.15;;;10.63;;
25083;SDS011;13075;55.682;37.564;2023-02-01T00:31:30;26.60;;;13.20;;
25083;SDS011;13075;55.682;37.564;2023-02-01T00:33:56;23.75;;;12.73;;
25083;SDS011;13075;55.682;37.564;2023-02-01T00:36:22;21.35;;;10.88;;
25083;SDS011;13075;55.682;37.564;2023-02-01T00:38:48;22.33;;;11.75;;
25083;SDS011;13075;55.682;37.564;2023-02-01T00:41:14;25.23;;;13.32;;
25083;SDS011;13075;55.682;37.564;2023-02-01T00:43:43;22.20;;;11.98;;
25083;SDS011;13075;55.682;37.564;2023-02-01T00:46:09;22.45;;;11.10;;
25083;SDS011;13075;55.682;37.564;2023-02-01T00:48:37;23.95;;;13.40;;
25083;SDS011;13075;55.682;37.564;2023-02-01T00:51:04;21.85;;;11.52;;
25083;SDS011;13075;55.682;37.564;2023-02-01T00:53:32;24.77;;;12.10;;
25083;SDS011;13075;55.682;37.564;2023-02-01T00:55:58;28.17;;;13.07;;
25083;SDS011;13075;55.682;37.564;2023-02-01T00:58:25;23.30;;;12.32;;
25083;SDS011;13075;55.682;37.564;2023-02-01T01:03:43;24.52;;;11.95;;
25083;SDS011;13075;55.682;37.564;2023-02-01T01:06:11;25.30;;;12.25;;
25083;SDS011;13075;55.682;37.564;2023-02-01T01:08:39;20.13;;;11.23;;
25083;SDS011;13075;55.682;37.564;2023-02-01T01:11:09;20.75;;;10.98;;
25083;SDS011;13075;55.682;37.564;2023-02-01T01:13:38;23.25;;;11.20;;
25083;SDS011;13075;55.682;37.564;2023-02-01T01:16:05;20.92;;;12.18;;
25083;SDS011;13075;55.682;37.564;2023-02-01T01:18:32;24.70;;;11.48;;
25083;SDS011;13075;55.682;37.564;2023-02-01T01:20:58;26.23;;;12.20;;
25083;SDS011;13075;55.682;37.564;2023-02-01T01:23:24;25.17;;;11.75;;
25083;SDS011;13075;55.682;37.564;2023-02-01T01:25:50;22.23;;;12.85;;
25083;SDS011;13075;55.682;37.564;2023-02-01T01:28:16;26.73;;;12.25;;
25083;SDS011;13075;55.682;37.564;2023-02-01T01:30:42;22.48;;;12.23;;
25083;SDS011;13075;55.682;37.564;2023-02-01T01:33:07;24.05;;;11.25;;
25083;SDS011;13075;55.682;37.564;2023-02-01T01:35:33;20.95;;;11.07;;
25083;SDS011;13075;55.682;37.564;2023-02-01T01:38:00;20.23;;;10.90;;
25083;SDS011;13075;55.682;37.564;2023-02-01T01:40:27;18.02;;;10.77;;
25083;SDS011;13075;55.682;37.564;2023-02-01T01:42:53;22.77;;;11.50;;
25083;SDS011;13075;55.682;37.564;2023-02-01T01:47:50;21.15;;;12.13;;
25083;SDS011;13075;55.682;37.564;2023-02-01T01:50:23;28.65;;;12.30;;
25083;SDS011;13075;55.682;37.564;2023-02-01T01:52:54;22.88;;;11.77;;
25083;SDS011;13075;55.682;37.564;2023-02-01T01:55:24;16.83;;;9.98;;
25083;SDS011;13075;55.682;37.564;2023-02-01T01:57:55;18.55;;;10.40;;
25083;SDS011;13075;55.682;37.564;2023-02-01T02:00:27;27.77;;;11.50;;
25083;SDS011;13075;55.682;37.564;2023-02-01T02:02:57;21.75;;;9.52;;
25083;SDS011;13075;55.682;37.564;2023-02-01T02:05:32;23.73;;;12.10;;
25083;SDS011;13075;55.682;37.564;2023-02-01T02:07:58;22.30;;;11.18;;
25083;SDS011;13075;55.682;37.564;2023-02-01T02:10:28;19.10;;;10.98;;
25083;SDS011;13075;55.682;37.564;2023-02-01T02:13:13;21.80;;;10.90;;
25083;SDS011;13075;55.682;37.564;2023-02-01T02:15:42;25.05;;;12.82;;
25083;SDS011;13075;55.682;37.564;2023-02-01T02:18:30;19.92;;;10.68;;
25083;SDS011;13075;55.682;37.564;2023-02-01T02:24:17;27.67;;;12.32;;
25083;SDS011;13075;55.682;37.564;2023-02-01T02:30:28;25.10;;;11.48;;
25083;SDS011;13075;55.682;37.564;2023-02-01T02:38:30;24.10;;;13.40;;
25083;SDS011;13075;55.682;37.564;2023-02-01T02:41:15;22.00;;;11.57;;
25083;SDS011;13075;55.682;37.564;2023-02-01T02:44:13;21.00;;;10.82;;
25083;SDS011;13075;55.682;37.564;2023-02-01T02:47:05;26.38;;;12.05;;
25083;SDS011;13075;55.682;37.564;2023-02-01T02:53:06;21.30;;;12.27;;
25083;SDS011;13075;55.682;37.564;2023-02-01T02:56:14;23.17;;;11.82;;
25083;SDS011;13075;55.682;37.564;2023-02-01T02:58:59;26.17;;;12.73;;
25083;SDS011;13075;55.682;37.564;2023-02-01T03:01:46;21.92;;;11.73;;
25083;SDS011;13075;55.682;37.564;2023-02-01T03:04:30;22.50;;;11.60;;
25083;SDS011;13075;55.682;37.564;2023-02-01T03:06:56;24.92;;;11.63;;
25083;SDS011;13075;55.682;37.564;2023-02-01T03:09:31;24.17;;;12.45;;
25083;SDS011;13075;55.682;37.564;2023-02-01T03:12:03;26.40;;;12.52;;
25083;SDS011;13075;55.682;37.564;2023-02-01T03:15:03;30.88;;;12.48;;
25083;SDS011;13075;55.682;37.564;2023-02-01T03:17:39;31.58;;;14.18;;
25083;SDS011;13075;55.682;37.564;2023-02-01T03:20:09;29.42;;;13.52;;
25083;SDS011;13075;55.682;37.564;2023-02-01T03:22:39;26.35;;;12.48;;
25083;SDS011;13075;55.682;37.564;2023-02-01T03:25:12;21.38;;;11.45;;
25083;SDS011;13075;55.682;37.564;2023-02-01T03:27:47;21.63;;;11.77;;
25083;SDS011;13075;55.682;37.564;2023-02-01T03:30:20;24.40;;;11.82;;
25083;SDS011;13075;55.682;37.564;2023-02-01T03:32:50;27.58;;;12.73;;
25083;SDS011;13075;55.682;37.564;2023-02-01T03:38:01;29.27;;;13.07;;
25083;SDS011;13075;55.682;37.564;2023-02-01T03:41:08;25.63;;;14.05;;
25083;SDS011;13075;55.682;37.564;2023-02-01T03:43:43;24.35;;;12.63;;
25083;SDS011;13075;55.682;37.564;2023-02-01T03:46:17;27.17;;;13.90;;
25083;SDS011;13075;55.682;37.564;2023-02-01T03:48:52;25.60;;;11.98;;
25083;SDS011;13075;55.682;37.564;2023-02-01T03:51:19;28.65;;;11.50;;
25083;SDS011;13075;55.682;37.564;2023-02-01T03:53:47;24.20;;;12.88;;
25083;SDS011;13075;55.682;37.564;2023-02-01T03:56:16;24.90;;;13.20;;
25083;SDS011;13075;55.682;37.564;2023-02-01T03:58:46;26.55;;;13.23;;
25083;SDS011;13075;55.682;37.564;2023-02-01T04:01:25;32.83;;;16.05;;
25083;SDS011;13075;55.682;37.564;2023-02-01T04:03:52;30.38;;;14.68;;
25083;SDS011;13075;55.682;37.564;2023-02-01T04:06:18;27.80;;;13.98;;
25083;SDS011;13075;55.682;37.564;2023-02-01T04:08:44;27.40;;;13.48;;
25083;SDS011;13075;55.682;37.564;2023-02-01T04:11:09;35.92;;;16.00;;
25083;SDS011;13075;55.682;37.564;2023-02-01T04:13:35;37.33;;;15.68;;
25083;SDS011;13075;55.682;37.564;2023-02-01T04:16:00;30.42;;;14.93;;
25083;SDS011;13075;55.682;37.564;2023-02-01T04:18:26;29.00;;;15.70;;
25083;SDS011;13075;55.682;37.564;2023-02-01T04:20:51;31.35;;;16.35;;
25083;SDS011;13075;55.682;37.564;2023-02-01T04:23:17;29.23;;;14.57;;
25083;SDS011;13075;55.682;37.564;2023-02-01T04:25:42;30.52;;;13.35;;
25083;SDS011;13075;55.682;37.564;2023-02-01T04:28:08;29.48;;;14.40;;
25083;SDS011;13075;55.682;37.564;2023-02-01T04:30:34;31.73;;;15.48;;
25083;SDS011;13075;55.682;37.564;2023-02-01T04:32:59;30.25;;;12.80;;
25083;SDS011;13075;55.682;37.564;2023-02-01T04:35:25;31.45;;;15.35;;
25083;SDS011;13075;55.682;37.564;2023-02-01T04:37:51;32.97;;;15.88;;
25083;SDS011;13075;55.682;37.564;2023-02-01T04:40:16;30.52;;;14.40;;
25083;SDS011;13075;55.682;37.564;2023-02-01T04:42:42;30.40;;;14.35;;
25083;SDS011;13075;55.682;37.564;2023-02-01T04:45:08;31.88;;;14.63;;
25083;SDS011;13075;55.682;37.564;2023-02-01T04:47:34;34.75;;;17.40;;
25083;SDS011;13075;55.682;37.564;2023-02-01T04:50:00;34.90;;;15.75;;
25083;SDS011;13075;55.682;37.564;2023-02-01T04:52:25;34.45;;;15.40;;
25083;SDS011;13075;55.682;37.564;2023-02-01T04:54:53;29.27;;;14.00;;
25083;SDS011;13075;55.682;37.564;2023-02-01T04:57:22;31.25;;;12.95;;
25083;SDS011;13075;55.682;37.564;2023-02-01T04:59:48;31.30;;;14.75;;
25083;SDS011;13075;55.682;37.564;2023-02-01T05:02:14;30.27;;;13.68;;
25083;SDS011;13075;55.682;37.564;2023-02-01T05:04:39;31.55;;;15.00;;
25083;SDS011;13075;55.682;37.564;2023-02-01T05:07:05;35.45;;;14.27;;
25083;SDS011;13075;55.682;37.564;2023-02-01T05:09:30;29.95;;;15.00;;
25083;SDS011;13075;55.682;37.564;2023-02-01T05:11:56;29.13;;;15.73;;
25083;SDS011;13075;55.682;37.564;2023-02-01T05:14:40;34.45;;;15.40;;
25083;SDS011;13075;55.682;37.564;2023-02-01T05:17:05;32.80;;;15.30;;
25083;SDS011;13075;55.682;37.564;2023-02-01T05:19:31;35.72;;;17.10;;
25083;SDS011;13075;55.682;37.564;2023-02-01T05:21:56;32.42;;;13.60;;
25083;SDS011;13075;55.682;37.564;2023-02-01T05:24:22;35.80;;;14.82;;
25083;SDS011;13075;55.682;37.564;2023-02-01T05:26:48;32.45;;;14.02;;
25083;SDS011;13075;55.682;37.564;2023-02-01T05:29:14;32.33;;;15.60;;
25083;SDS011;13075;55.682;37.564;2023-02-01T05:31:41;33.58;;;15.68;;
25083;SDS011;13075;55.682;37.564;2023-02-01T05:34:10;33.30;;;15.95;;
25083;SDS011;13075;55.682;37.564;2023-02-01T05:36:36;34.83;;;15.65;;
25083;SDS011;13075;55.682;37.564;2023-02-01T05:39:02;31.40;;;14.65;;
25083;SDS011;13075;55.682;37.564;2023-02-01T05:41:28;34.15;;;15.05;;
25083;SDS011;13075;55.682;37.564;2023-02-01T05:43:54;37.17;;;16.20;;
25083;SDS011;13075;55.682;37.564;2023-02-01T05:46:19;37.90;;;16.60;;
25083;SDS011;13075;55.682;37.564;2023-02-01T05:48:45;38.97;;;16.45;;
25083;SDS011;13075;55.682;37.564;2023-02-01T05:51:11;30.58;;;14.45;;
25083;SDS011;13075;55.682;37.564;2023-02-01T05:53:37;32.50;;;15.02;;
25083;SDS011;13075;55.682;37.564;2023-02-01T05:56:03;35.60;;;16.20;;
25083;SDS011;13075;55.682;37.564;2023-02-01T05:58:29;39.88;;;16.00;;
25083;SDS011;13075;55.682;37.564;2023-02-01T06:00:55;36.58;;;16.92;;
25083;SDS011;13075;55.682;37.564;2023-02-01T06:03:20;38.03;;;15.90;;
25083;SDS011;13075;55.682;37.564;2023-02-01T06:05:46;37.65;;;15.90;;
25083;SDS011;13075;55.682;37.564;2023-02-01T06:08:13;42.17;;;17.58;;
25083;SDS011;13075;55.682;37.564;2023-02-01T06:10:39;36.92;;;16.35;;
25083;SDS011;13075;55.682;37.564;2023-02-01T06:13:05;37.55;;;16.88;;
25083;SDS011;13075;55.682;37.564;2023-02-01T06:15:30;41.67;;;17.88;;
25083;SDS011;13075;55.682;37.564;2023-02-01T06:17:57;37.63;;;17.85;;
25083;SDS011;13075;55.682;37.564;2023-02-01T06:20:23;36.47;;;17.05;;
25083;SDS011;13075;55.682;37.564;2023-02-01T06:22:48;44.45;;;18.23;;
25083;SDS011;13075;55.682;37.564;2023-02-01T06:25:14;32.42;;;15.98;;
25083;SDS011;13075;55.682;37.564;2023-02-01T06:27:41;35.85;;;16.85;;
25083;SDS011;13075;55.682;37.564;2023-02-01T06:30:07;34.10;;;15.80;;
25083;SDS011;13075;55.682;37.564;2023-02-01T06:32:33;35.38;;;17.75;;
25083;SDS011;13075;55.682;37.564;2023-02-01T06:34:59;42.50;;;17.65;;
25083;SDS011;13075;55.682;37.564;2023-02-01T06:37:25;35.95;;;15.23;;
25083;SDS011;13075;55.682;37.564;2023-02-01T06:39:52;42.42;;;16.20;;
25083;SDS011;13075;55.682;37.564;2023-02-01T06:42:18;38.65;;;17.15;;
25083;SDS011;13075;55.682;37.564;2023-02-01T06:44:43;34.92;;;16.77;;
25083;SDS011;13075;55.682;37.564;2023-02-01T06:47:09;35.92;;;16.52;;
25083;SDS011;13075;55.682;37.564;2023-02-01T06:49:35;41.28;;;16.35;;
25083;SDS011;13075;55.682;37.564;2023-02-01T06:52:00;49.22;;;16.70;;
25083;SDS011;13075;55.682;37.564;2023-02-01T06:54:26;42.95;;;17.05;;
25083;SDS011;13075;55.682;37.564;2023-02-01T06:56:52;42.53;;;15.15;;
25083;SDS011;13075;55.682;37.564;2023-02-01T06:59:18;38.38;;;17.33;;
25083;SDS011;13075;55.682;37.564;2023-02-01T07:01:44;38.70;;;15.43;;
25083;SDS011;13075;55.682;37.564;2023-02-01T07:04:10;40.78;;;15.93;;
25083;SDS011;13075;55.682;37.564;2023-02-01T07:06:37;39.30;;;18.05;;
25083;SDS011;13075;55.682;37.564;2023-02-01T07:09:03;39.80;;;15.32;;
25083;SDS011;13075;55.682;37.564;2023-02-01T07:11:28;40.30;;;17.17;;
25083;SDS011;13075;55.682;37.564;2023-02-01T07:13:54;35.40;;;15.82;;
25083;SDS011;13075;55.682;37.564;2023-02-01T07:16:20;34.20;;;16.75;;
25083;SDS011;13075;55.682;37.564;2023-02-01T07:18:46;34.80;;;16.73;;
25083;SDS011;13075;55.682;37.564;2023-02-01T07:21:12;44.40;;;17.35;;
25083;SDS011;13075;55.682;37.564;2023-02-01T07:23:38;33.75;;;15.10;;
25083;SDS011;13075;55.682;37.564;2023-02-01T07:26:05;35.70;;;14.77;;
25083;SDS011;13075;55.682;37.564;2023-02-01T07:28:32;40.35;;;15.02;;
25083;SDS011;13075;55.682;37.564;2023-02-01T07:31:03;33.55;;;15.45;;
25083;SDS011;13075;55.682;37.564;2023-02-01T07:33:29;46.22;;;16.10;;
25083;SDS011;13075;55.682;37.564;2023-02-01T07:35:55;45.70;;;17.23;;
25083;SDS011;13075;55.682;37.564;2023-02-01T07:38:21;35.22;;;15.95;;
25083;SDS011;13075;55.682;37.564;2023-02-01T07:40:49;38.55;;;17.13;;
25083;SDS011;13075;55.682;37.564;2023-02-01T07:43:15;35.65;;;16.23;;
25083;SDS011;13075;55.682;37.564;2023-02-01T07:45:41;34.85;;;16.58;;
25083;SDS011;13075;55.682;37.564;2023-02-01T07:48:06;35.28;;;17.45;;
25083;SDS011;13075;55.682;37.564;2023-02-01T07:50:32;30.42;;;14.40;;
25083;SDS011;13075;55.682;37.564;2023-02-01T07:53:00;38.92;;;17.48;;
25083;SDS011;13075;55.682;37.564;2023-02-01T07:55:26;32.58;;;16.60;;
25083;SDS011;13075;55.682;37.564;2023-02-01T07:57:52;32.08;;;17.23;;
25083;SDS011;13075;55.682;37.564;2023-02-01T08:00:21;38.53;;;18.27;;
25083;SDS011;13075;55.682;37.564;2023-02-01T08:03:05;38.83;;;16.50;;
25083;SDS011;13075;55.682;37.564;2023-02-01T08:05:31;38.40;;;16.92;;
25083;SDS011;13075;55.682;37.564;2023-02-01T08:07:56;35.40;;;16.92;;
25083;SDS011;13075;55.682;37.564;2023-02-01T08:10:22;31.80;;;15.63;;
25083;SDS011;13075;55.682;37.564;2023-02-01T08:12:47;36.03;;;15.85;;
25083;SDS011;13075;55.682;37.564;2023-02-01T08:15:17;36.72;;;16.27;;
25083;SDS011;13075;55.682;37.564;2023-02-01T08:17:49;35.53;;;15.32;;
25083;SDS011;13075;55.682;37.564;2023-02-01T08:20:16;32.30;;;16.02;;
25083;SDS011;13075;55.682;37.564;2023-02-01T08:22:43;36.10;;;16.95;;
25083;SDS011;13075;55.682;37.564;2023-02-01T08:25:09;31.20;;;16.23;;
25083;SDS011;13075;55.682;37.564;2023-02-01T08:27:36;37.55;;;18.58;;
25083;SDS011;13075;55.682;37.564;2023-02-01T08:30:02;40.70;;;17.45;;
25083;SDS011;13075;55.682;37.564;2023-02-01T08:32:30;34.60;;;17.55;;
25083;SDS011;13075;55.682;37.564;2023-02-01T08:34:56;39.08;;;17.52;;
25083;SDS011;13075;55.682;37.564;2023-02-01T08:37:21;32.58;;;17.55;;
25083;SDS011;13075;55.682;37.564;2023-02-01T08:39:47;37.03;;;17.42;;
25083;SDS011;13075;55.682;37.564;2023-02-01T08:42:15;38.53;;;17.45;;
25083;SDS011;13075;55.682;37.564;2023-02-01T08:45:00;38.10;;;17.23;;
25083;SDS011;13075;55.682;37.564;2023-02-01T08:47:26;28.13;;;15.13;;
25083;SDS011;13075;55.682;37.564;2023-02-01T08:49:51;30.13;;;16.15;;
25083;SDS011;13075;55.682;37.564;2023-02-01T08:52:18;33.50;;;15.45;;
25083;SDS011;13075;55.682;37.564;2023-02-01T08:54:44;32.92;;;15.95;;
25083;SDS011;13075;55.682;37.564;2023-02-01T08:57:10;33.55;;;14.75;;
25083;SDS011;13075;55.682;37.564;2023-02-01T08:59:35;35.35;;;16.48;;
25083;SDS011;13075;55.682;37.564;2023-02-01T09:02:01;35.53;;;17.63;;
25083;SDS011;13075;55.682;37.564;2023-02-01T09:04:27;32.53;;;15.73;;
25083;SDS011;13075;55.682;37.564;2023-02-01T09:06:52;30.02;;;13.90;;
25083;SDS011;13075;55.682;37.564;2023-02-01T09:09:21;29.60;;;15.40;;
25083;SDS011;13075;55.682;37.564;2023-02-01T09:11:47;29.02;;;15.35;;
25083;SDS011;13075;55.682;37.564;2023-02-01T09:14:14;34.38;;;14.88;;
25083;SDS011;13075;55.682;37.564;2023-02-01T09:16:40;36.00;;;14.60;;
25083;SDS011;13075;55.682;37.564;2023-02-01T09:19:05;31.85;;;16.00;;
25083;SDS011;13075;55.682;37.564;2023-02-01T09:21:31;41.70;;;15.88;;
25083;SDS011;13075;55.682;37.564;2023-02-01T09:23:57;34.22;;;17.40;;
25083;SDS011;13075;55.682;37.564;2023-02-01T09:26:22;37.65;;;18.08;;
25083;SDS011;13075;55.682;37.564;2023-02-01T09:28:48;35.00;;;18.42;;
25083;SDS011;13075;55.682;37.564;2023-02-01T09:31:14;45.53;;;20.25;;
25083;SDS011;13075;55.682;37.564;2023-02-01T09:33:40;40.13;;;19.23;;
25083;SDS011;13075;55.682;37.564;2023-02-01T09:36:05;38.03;;;20.30;;
25083;SDS011;13075;55.682;37.564;2023-02-01T09:38:31;43.28;;;19.83;;
25083;SDS011;13075;55.682;37.564;2023-02-01T09:40:58;44.75;;;21.77;;
25083;SDS011;13075;55.682;37.564;2023-02-01T09:43:29;42.10;;;20.65;;
25083;SDS011;13075;55.682;37.564;2023-02-01T09:46:15;42.50;;;21.58;;
25083;SDS011;13075;55.682;37.564;2023-02-01T09:48:59;46.90;;;22.25;;
25083;SDS011;13075;55.682;37.564;2023-02-01T09:51:31;47.30;;;21.30;;
25083;SDS011;13075;55.682;37.564;2023-02-01T09:57:13;39.75;;;19.92;;
25083;SDS011;13075;55.682;37.564;2023-02-01T09:59:46;41.38;;;20.35;;
25083;SDS011;13075;55.682;37.564;2023-02-01T10:02:20;43.67;;;19.20;;
25083;SDS011;13075;55.682;37.564;2023-02-01T10:04:48;39.30;;;20.42;;
25083;SDS011;13075;55.682;37.564;2023-02-01T10:09:55;43.75;;;22.52;;
25083;SDS011;13075;55.682;37.564;2023-02-01T10:15:48;40.22;;;20.92;;
25083;SDS011;13075;55.682;37.564;2023-02-01T10:21:21;43.20;;;20.88;;
25083;SDS011;13075;55.682;37.564;2023-02-01T10:24:05;39.40;;;20.15;;
25083;SDS011;13075;55.682;37.564;2023-02-01T10:26:55;34.97;;;18.67;;
25083;SDS011;13075;55.682;37.564;2023-02-01T10:29:27;39.67;;;18.30;;
25083;SDS011;13075;55.682;37.564;2023-02-01T10:32:00;42.03;;;22.35;;
25083;SDS011;13075;55.682;37.564;2023-02-01T10:34:27;40.33;;;20.02;;
25083;SDS011;13075;55.682;37.564;2023-02-01T10:37:01;41.50;;;20.27;;
25083;SDS011;13075;55.682;37.564;2023-02-01T10:39:35;44.83;;;22.17;;
25083;SDS011;13075;55.682;37.564;2023-02-01T10:42:02;38.45;;;18.83;;
25083;SDS011;13075;55.682;37.564;2023-02-01T10:44:28;43.85;;;19.52;;
25083;SDS011;13075;55.682;37.564;2023-02-01T10:46:56;36.92;;;18.63;;
25083;SDS011;13075;55.682;37.564;2023-02-01T10:49:37;37.00;;;19.10;;
25083;SDS011;13075;55.682;37.564;2023-02-01T10:52:12;36.88;;;18.50;;
25083;SDS011;13075;55.682;37.564;2023-02-01T10:54:42;36.88;;;19.67;;
25083;SDS011;13075;55.682;37.564;2023-02-01T10:57:08;39.28;;;20.77;;
25083;SDS011;13075;55.682;37.564;2023-02-01T10:59:35;39.17;;;18.88;;
25083;SDS011;13075;55.682;37.564;2023-02-01T11:02:05;40.47;;;19.00;;
25083;SDS011;13075;55.682;37.564;2023-02-01T11:04:41;38.08;;;17.92;;
25083;SDS011;13075;55.682;37.564;2023-02-01T11:09:39;36.60;;;18.50;;
25083;SDS011;13075;55.682;37.564;2023-02-01T11:12:20;36.20;;;18.90;;
25083;SDS011;13075;55.682;37.564;2023-02-01T11:14:50;38.38;;;19.15;;
25083;SDS011;13075;55.682;37.564;2023-02-01T11:19:55;36.20;;;19.55;;
25083;SDS011;13075;55.682;37.564;2023-02-01T11:22:26;39.13;;;18.55;;
25083;SDS011;13075;55.682;37.564;2023-02-01T11:24:53;37.00;;;17.85;;
25083;SDS011;13075;55.682;37.564;2023-02-01T11:27:20;38.83;;;19.58;;
25083;SDS011;13075;55.682;37.564;2023-02-01T11:29:52;34.60;;;17.15;;
25083;SDS011;13075;55.682;37.564;2023-02-01T11:32:23;39.22;;;17.65;;
25083;SDS011;13075;55.682;37.564;2023-02-01T11:34:54;48.97;;;20.10;;
25083;SDS011;13075;55.682;37.564;2023-02-01T11:37:29;34.50;;;18.20;;
25083;SDS011;13075;55.682;37.564;2023-02-01T11:40:00;37.63;;;18.45;;
25083;SDS011;13075;55.682;37.564;2023-02-01T11:42:29;37.65;;;19.58;;
25083;SDS011;13075;55.682;37.564;2023-02-01T11:45:37;40.58;;;19.52;;
25083;SDS011;13075;55.682;37.564;2023-02-01T11:47:51;40.22;;;19.33;;
25083;SDS011;13075;55.682;37.564;2023-02-01T11:56:25;37.08;;;20.45;;
25083;SDS011;13075;55.682;37.564;2023-02-01T11:59:08;37.38;;;19.58;;
25083;SDS011;13075;55.682;37.564;2023-02-01T12:01:40;35.22;;;17.10;;
25083;SDS011;13075;55.682;37.564;2023-02-01T12:04:54;35.00;;;18.00;;
25083;SDS011;13075;55.682;37.564;2023-02-01T12:26:54;29.23;;;16.13;;
25083;SDS011;13075;55.682;37.564;2023-02-01T12:32:25;26.48;;;15.57;;
25083;SDS011;13075;55.682;37.564;2023-02-01T12:35:13;30.42;;;15.27;;
25083;SDS011;13075;55.682;37.564;2023-02-01T12:40:50;29.08;;;14.63;;
25083;SDS011;13075;55.682;37.564;2023-02-01T12:46:45;35.20;;;15.68;;
25083;SDS011;13075;55.682;37.564;2023-02-01T12:51:52;26.70;;;13.82;;
25083;SDS011;13075;55.682;37.564;2023-02-01T12:57:15;27.13;;;14.75;;
25083;SDS011;13075;55.682;37.564;2023-02-01T13:00:13;29.45;;;14.32;;
25083;SDS011;13075;55.682;37.564;2023-02-01T13:02:54;31.42;;;15.07;;
25083;SDS011;13075;55.682;37.564;2023-02-01T13:05:34;28.77;;;14.07;;
25083;SDS011;13075;55.682;37.564;2023-02-01T13:08:14;29.70;;;17.52;;
25083;SDS011;13075;55.682;37.564;2023-02-01T13:10:57;28.52;;;14.85;;
25083;SDS011;13075;55.682;37.564;2023-02-01T13:13:32;25.48;;;14.43;;
25083;SDS011;13075;55.682;37.564;2023-02-01T13:16:17;25.13;;;14.15;;
25083;SDS011;13075;55.682;37.564;2023-02-01T13:18:47;25.38;;;13.95;;
25083;SDS011;13075;55.682;37.564;2023-02-01T13:21:17;25.30;;;15.18;;
25083;SDS011;13075;55.682;37.564;2023-02-01T13:23:48;22.38;;;13.68;;
25083;SDS011;13075;55.682;37.564;2023-02-01T13:26:15;25.83;;;13.48;;
25083;SDS011;13075;55.682;37.564;2023-02-01T13:28:47;28.73;;;14.50;;
25083;SDS011;13075;55.682;37.564;2023-02-01T13:39:51;26.48;;;12.25;;
25083;SDS011;13075;55.682;37.564;2023-02-01T13:42:45;22.73;;;10.93;;
25083;SDS011;13075;55.682;37.564;2023-02-01T13:45:16;22.55;;;11.73;;
25083;SDS011;13075;55.682;37.564;2023-02-01T13:47:46;23.27;;;11.90;;
25083;SDS011;13075;55.682;37.564;2023-02-01T13:56:38;20.55;;;10.02;;
25083;SDS011;13075;55.682;37.564;2023-02-01T13:58:43;26.95;;;12.10;;
25083;SDS011;13075;55.682;37.564;2023-02-01T14:06:39;26.20;;;11.60;;
25083;SDS011;13075;55.682;37.564;2023-02-01T14:11:43;19.75;;;10.40;;
25083;SDS011;13075;55.682;37.564;2023-02-01T14:16:41;18.27;;;10.43;;
25083;SDS011;13075;55.682;37.564;2023-02-01T14:19:30;23.95;;;11.90;;
25083;SDS011;13075;55.682;37.564;2023-02-01T14:21:59;22.75;;;11.70;;
25083;SDS011;13075;55.682;37.564;2023-02-01T14:24:30;25.42;;;11.77;;
25083;SDS011;13075;55.682;37.564;2023-02-01T14:26:59;24.10;;;12.07;;
25083;SDS011;13075;55.682;37.564;2023-02-01T14:29:53;23.00;;;12.00;;
25083;SDS011;13075;55.682;37.564;2023-02-01T14:32:36;19.30;;;10.43;;
25083;SDS011;13075;55.682;37.564;2023-02-01T14:35:07;28.15;;;12.52;;
25083;SDS011;13075;55.682;37.564;2023-02-01T14:37:42;26.90;;;13.35;;
25083;SDS011;13075;55.682;37.564;2023-02-01T14:47:51;26.52;;;12.57;;
25083;SDS011;13075;55.682;37.564;2023-02-01T14:53:00;23.30;;;12.13;;
25083;SDS011;13075;55.682;37.564;2023-02-01T14:55:40;27.92;;;12.63;;
25083;SDS011;13075;55.682;37.564;2023-02-01T15:03:48;24.55;;;11.63;;
25083;SDS011;13075;55.682;37.564;2023-02-01T15:06:26;23.15;;;12.55;;
25083;SDS011;13075;55.682;37.564;2023-02-01T15:09:09;20.95;;;10.85;;
25083;SDS011;13075;55.682;37.564;2023-02-01T15:11:55;23.52;;;11.50;;
25083;SDS011;13075;55.682;37.564;2023-02-01T15:14:28;25.48;;;11.25;;
25083;SDS011;13075;55.682;37.564;2023-02-01T15:16:56;19.08;;;10.75;;
25083;SDS011;13075;55.682;37.564;2023-02-01T15:19:23;24.17;;;12.48;;
25083;SDS011;13075;55.682;37.564;2023-02-01T15:21:51;21.98;;;11.02;;
25083;SDS011;13075;55.682;37.564;2023-02-01T15:24:21;26.10;;;10.45;;
25083;SDS011;13075;55.682;37.564;2023-02-01T15:26:48;20.42;;;11.13;;
25083;SDS011;13075;55.682;37.564;2023-02-01T15:29:15;25.60;;;11.52;;
25083;SDS011;13075;55.682;37.564;2023-02-01T15:31:43;23.02;;;10.73;;
25083;SDS011;13075;55.682;37.564;2023-02-01T15:34:13;26.08;;;12.98;;
25083;SDS011;13075;55.682;37.564;2023-02-01T15:36:40;21.15;;;11.63;;
25083;SDS011;13075;55.682;37.564;2023-02-01T15:41:48;33.17;;;14.38;;
25083;SDS011;13075;55.682;37.564;2023-02-01T15:44:18;27.25;;;14.10;;
25083;SDS011;13075;55.682;37.564;2023-02-01T15:46:45;32.80;;;14.27;;
25083;SDS011;13075;55.682;37.564;2023-02-01T15:49:28;27.88;;;13.82;;
25083;SDS011;13075;55.682;37.564;2023-02-01T15:51:56;30.05;;;14.57;;
25083;SDS011;13075;55.682;37.564;2023-02-01T15:54:28;32.28;;;15.73;;
25083;SDS011;13075;55.682;37.564;2023-02-01T15:56:58;28.70;;;14.33;;
25083;SDS011;13075;55.682;37.564;2023-02-01T15:59:31;32.17;;;14.38;;
25083;SDS011;13075;55.682;37.564;2023-02-01T16:02:02;32.05;;;15.52;;
25083;SDS011;13075;55.682;37.564;2023-02-01T16:04:28;31.48;;;16.45;;
25083;SDS011;13075;55.682;37.564;2023-02-01T16:07:02;33.45;;;16.52;;
25083;SDS011;13075;55.682;37.564;2023-02-01T16:09:39;32.83;;;15.75;;
25083;SDS011;13075;55.682;37.564;2023-02-01T16:12:44;34.17;;;17.48;;
25083;SDS011;13075;55.682;37.564;2023-02-01T16:15:12;33.15;;;14.23;;
25083;SDS011;13075;55.682;37.564;2023-02-01T16:17:37;31.23;;;16.83;;
25083;SDS011;13075;55.682;37.564;2023-02-01T16:20:03;34.75;;;15.80;;
25083;SDS011;13075;55.682;37.564;2023-02-01T16:22:30;34.95;;;13.98;;
25083;SDS011;13075;55.682;37.564;2023-02-01T16:24:55;28.42;;;13.55;;
25083;SDS011;13075;55.682;37.564;2023-02-01T16:27:22;28.35;;;15.32;;
25083;SDS011;13075;55.682;37.564;2023-02-01T16:29:48;32.42;;;14.57;;
25083;SDS011;13075;55.682;37.564;2023-02-01T16:32:18;29.88;;;14.55;;